sensor_id;sensor_type;location;lat;lon;timestamp;temperature;humidity
23231;DHT22;11784;49.818;8.632;2023-04-03T00:01:06;9.20;71.30
23231;DHT22;11784;49.818;8.632;2023-04-03T00:03:32;9.20;70.80
23231;DHT22;11784;49.818;8.632;2023-04-03T00:05:58;9.20;71.00
23231;DHT22;11784;49.818;8.632;2023-04-03T00:08:23;9.10;71.60
23231;DHT22;11784;49.818;8.632;2023-04-03T00:10:49;9.10;71.10
23231;DHT22;11784;49.818;8.632;2023-04-03T00:13:14;9.00;71.70
23231;DHT22;11784;49.818;8.632;2023-04-03T00:15:40;9.00;72.40
23231;DHT22;11784;49.818;8.632;2023-04-03T00:18:06;9.00;72.90
23231;DHT22;11784;49.818;8.632;2023-04-03T00:20:33;8.90;73.00
23231;DHT22;11784;49.818;8.632;2023-04-03T00:22:59;8.90;73.20
23231;DHT22;11784;49.818;8.632;2023-04-03T00:25:25;8.80;72.70
23231;DHT22;11784;49.818;8.632;2023-04-03T00:27:50;8.80;72.80
23231;DHT22;11784;49.818;8.632;2023-04-03T00:30:18;8.70;72.90
23231;DHT22;11784;49.818;8.632;2023-04-03T00:32:44;8.70;73.60
23231;DHT22;11784;49.818;8.632;2023-04-03T00:35:10;8.60;73.70
23231;DHT22;11784;49.818;8.632;2023-04-03T00:37:37;8.60;73.60
23231;DHT22;11784;49.818;8.632;2023-04-03T00:40:03;8.50;73.90
23231;DHT22;11784;49.818;8.632;2023-04-03T00:42:29;8.40;73.90
23231;DHT22;11784;49.818;8.632;2023-04-03T00:47:25;8.40;74.70
23231;DHT22;11784;49.818;8.632;2023-04-03T00:49:52;8.30;74.70
23231;DHT22;11784;49.818;8.632;2023-04-03T00:52:25;8.30;75.30
23231;DHT22;11784;49.818;8.632;2023-04-03T00:54:54;8.20;74.90
23231;DHT22;11784;49.818;8.632;2023-04-03T00:57:22;8.20;75.50
23231;DHT22;11784;49.818;8.632;2023-04-03T00:59:52;8.10;76.00
23231;DHT22;11784;49.818;8.632;2023-04-03T01:02:18;8.10;76.30
23231;DHT22;11784;49.818;8.632;2023-04-03T01:04:44;8.10;75.80
23231;DHT22;11784;49.818;8.632;2023-04-03T01:07:22;8.00;75.50
23231;DHT22;11784;49.818;8.632;2023-04-03T01:09:52;8.00;76.00
23231;DHT22;11784;49.818;8.632;2023-04-03T01:12:28;8.00;76.30
23231;DHT22;11784;49.818;8.632;2023-04-03T01:15:09;8.00;76.60
23231;DHT22;11784;49.818;8.632;2023-04-03T01:17:40;8.00;77.00
23231;DHT22;11784;49.818;8.632;2023-04-03T01:25:55;7.80;77.20
23231;DHT22;11784;49.818;8.632;2023-04-03T01:28:27;7.80;76.90
23231;DHT22;11784;49.818;8.632;2023-04-03T01:33:53;7.80;77.80
23231;DHT22;11784;49.818;8.632;2023-04-03T01:36:23;7.80;77.20
23231;DHT22;11784;49.818;8.632;2023-04-03T01:38:50;7.80;77.50
23231;DHT22;11784;49.818;8.632;2023-04-03T01:41:16;7.80;78.00
23231;DHT22;11784;49.818;8.632;2023-04-03T01:43:42;7.70;77.60
23231;DHT22;11784;49.818;8.632;2023-04-03T01:46:08;7.70;77.80
23231;DHT22;11784;49.818;8.632;2023-04-03T01:48:34;7.70;78.00
23231;DHT22;11784;49.818;8.632;2023-04-03T01:50:59;7.70;77.80
23231;DHT22;11784;49.818;8.632;2023-04-03T01:53:25;7.70;78.30
23231;DHT22;11784;49.818;8.632;2023-04-03T01:55:51;7.70;77.80
23231;DHT22;11784;49.818;8.632;2023-04-03T01:58:16;7.70;78.00
23231;DHT22;11784;49.818;8.632;2023-04-03T02:00:42;7.70;78.00
23231;DHT22;11784;49.818;8.632;2023-04-03T02:03:07;7.70;77.90
23231;DHT22;11784;49.818;8.632;2023-04-03T02:05:33;7.70;77.50
23231;DHT22;11784;49.818;8.632;2023-04-03T02:07:59;7.70;77.50
23231;DHT22;11784;49.818;8.632;2023-04-03T02:10:24;7.70;78.60
23231;DHT22;11784;49.818;8.632;2023-04-03T02:12:50;7.70;78.20
23231;DHT22;11784;49.818;8.632;2023-04-03T02:15:16;7.70;78.40
23231;DHT22;11784;49.818;8.632;2023-04-03T02:17:42;7.70;78.40
23231;DHT22;11784;49.818;8.632;2023-04-03T02:20:08;7.70;78.30
23231;DHT22;11784;49.818;8.632;2023-04-03T02:22:34;7.70;79.10
23231;DHT22;11784;49.818;8.632;2023-04-03T02:24:59;7.70;77.90
23231;DHT22;11784;49.818;8.632;2023-04-03T02:27:26;7.70;78.10
23231;DHT22;11784;49.818;8.632;2023-04-03T02:29:51;7.70;77.50
23231;DHT22;11784;49.818;8.632;2023-04-03T02:32:17;7.70;77.60
23231;DHT22;11784;49.818;8.632;2023-04-03T02:34:43;7.60;77.70
23231;DHT22;11784;49.818;8.632;2023-04-03T02:37:08;7.60;78.20
23231;DHT22;11784;49.818;8.632;2023-04-03T02:39:34;7.60;77.60
23231;DHT22;11784;49.818;8.632;2023-04-03T02:42:00;7.50;77.60
23231;DHT22;11784;49.818;8.632;2023-04-03T02:44:25;7.50;78.00
23231;DHT22;11784;49.818;8.632;2023-04-03T02:46:51;7.50;78.10
23231;DHT22;11784;49.818;8.632;2023-04-03T02:49:16;7.50;78.20
23231;DHT22;11784;49.818;8.632;2023-04-03T02:51:42;7.50;78.70
23231;DHT22;11784;49.818;8.632;2023-04-03T02:54:08;7.50;78.50
23231;DHT22;11784;49.818;8.632;2023-04-03T02:56:33;7.50;78.40
23231;DHT22;11784;49.818;8.632;2023-04-03T02:58:59;7.50;78.40
23231;DHT22;11784;49.818;8.632;2023-04-03T03:01:25;7.50;78.30
23231;DHT22;11784;49.818;8.632;2023-04-03T03:03:54;7.50;78.30
23231;DHT22;11784;49.818;8.632;2023-04-03T03:06:19;7.40;78.10
23231;DHT22;11784;49.818;8.632;2023-04-03T03:08:45;7.40;78.30
23231;DHT22;11784;49.818;8.632;2023-04-03T03:11:11;7.40;78.20
23231;DHT22;11784;49.818;8.632;2023-04-03T03:13:37;7.30;79.10
23231;DHT22;11784;49.818;8.632;2023-04-03T03:16:03;7.30;79.10
23231;DHT22;11784;49.818;8.632;2023-04-03T03:18:29;7.30;78.10
23231;DHT22;11784;49.818;8.632;2023-04-03T03:20:58;7.20;78.60
23231;DHT22;11784;49.818;8.632;2023-04-03T03:23:25;7.20;79.10
23231;DHT22;11784;49.818;8.632;2023-04-03T03:25:56;7.20;79.00
23231;DHT22;11784;49.818;8.632;2023-04-03T03:28:22;7.20;79.10
23231;DHT22;11784;49.818;8.632;2023-04-03T03:30:47;7.10;79.90
23231;DHT22;11784;49.818;8.632;2023-04-03T03:33:13;7.10;79.40
23231;DHT22;11784;49.818;8.632;2023-04-03T03:35:38;7.10;79.10
23231;DHT22;11784;49.818;8.632;2023-04-03T03:38:04;7.10;79.20
23231;DHT22;11784;49.818;8.632;2023-04-03T03:40:29;7.10;79.30
23231;DHT22;11784;49.818;8.632;2023-04-03T03:42:55;7.10;78.80
23231;DHT22;11784;49.818;8.632;2023-04-03T03:45:20;7.10;79.10
23231;DHT22;11784;49.818;8.632;2023-04-03T03:47:46;7.00;79.80
23231;DHT22;11784;49.818;8.632;2023-04-03T03:50:11;7.00;79.80
23231;DHT22;11784;49.818;8.632;2023-04-03T03:52:37;7.00;79.50
23231;DHT22;11784;49.818;8.632;2023-04-03T03:55:02;7.00;79.50
23231;DHT22;11784;49.818;8.632;2023-04-03T03:57:28;7.00;79.50
23231;DHT22;11784;49.818;8.632;2023-04-03T03:59:54;7.00;79.20
23231;DHT22;11784;49.818;8.632;2023-04-03T04:02:20;7.00;79.20
23231;DHT22;11784;49.818;8.632;2023-04-03T04:04:45;6.90;79.10
23231;DHT22;11784;49.818;8.632;2023-04-03T04:07:11;6.90;79.50
23231;DHT22;11784;49.818;8.632;2023-04-03T04:09:36;6.90;80.00
23231;DHT22;11784;49.818;8.632;2023-04-03T04:12:02;6.90;79.70
23231;DHT22;11784;49.818;8.632;2023-04-03T04:14:27;7.00;79.90
23231;DHT22;11784;49.818;8.632;2023-04-03T04:16:53;6.90;79.60
23231;DHT22;11784;49.818;8.632;2023-04-03T04:19:18;6.90;79.80
23231;DHT22;11784;49.818;8.632;2023-04-03T04:21:44;6.90;79.70
23231;DHT22;11784;49.818;8.632;2023-04-03T04:24:10;6.90;79.80
23231;DHT22;11784;49.818;8.632;2023-04-03T04:26:36;6.90;79.70
23231;DHT22;11784;49.818;8.632;2023-04-03T04:29:02;6.90;79.80
23231;DHT22;11784;49.818;8.632;2023-04-03T04:31:27;6.90;79.70
23231;DHT22;11784;49.818;8.632;2023-04-03T04:33:53;6.90;79.90
23231;DHT22;11784;49.818;8.632;2023-04-03T04:36:18;6.90;79.90
23231;DHT22;11784;49.818;8.632;2023-04-03T04:38:44;7.00;80.50
23231;DHT22;11784;49.818;8.632;2023-04-03T04:41:10;7.00;80.50
23231;DHT22;11784;49.818;8.632;2023-04-03T04:43:36;7.00;80.40
23231;DHT22;11784;49.818;8.632;2023-04-03T04:46:07;7.00;80.40
23231;DHT22;11784;49.818;8.632;2023-04-03T04:48:34;7.00;80.20
23231;DHT22;11784;49.818;8.632;2023-04-03T04:51:01;7.00;80.10
23231;DHT22;11784;49.818;8.632;2023-04-03T04:53:27;7.00;79.70
23231;DHT22;11784;49.818;8.632;2023-04-03T04:55:52;7.00;79.70
23231;DHT22;11784;49.818;8.632;2023-04-03T04:58:18;7.00;79.80
23231;DHT22;11784;49.818;8.632;2023-04-03T05:00:44;7.00;79.90
23231;DHT22;11784;49.818;8.632;2023-04-03T05:03:10;7.00;80.00
23231;DHT22;11784;49.818;8.632;2023-04-03T05:05:36;7.00;80.20
23231;DHT22;11784;49.818;8.632;2023-04-03T05:08:02;7.00;80.20
23231;DHT22;11784;49.818;8.632;2023-04-03T05:10:28;7.00;80.70
23231;DHT22;11784;49.818;8.632;2023-04-03T05:12:54;7.00;80.90
23231;DHT22;11784;49.818;8.632;2023-04-03T05:15:21;7.00;81.60
23231;DHT22;11784;49.818;8.632;2023-04-03T05:17:47;7.00;82.70
23231;DHT22;11784;49.818;8.632;2023-04-03T05:20:14;7.10;83.10
23231;DHT22;11784;49.818;8.632;2023-04-03T05:22:40;7.20;83.40
23231;DHT22;11784;49.818;8.632;2023-04-03T05:25:06;7.30;83.20
23231;DHT22;11784;49.818;8.632;2023-04-03T05:27:32;7.40;83.20
23231;DHT22;11784;49.818;8.632;2023-04-03T05:29:57;7.50;82.50
23231;DHT22;11784;49.818;8.632;2023-04-03T05:32:24;7.60;82.10
23231;DHT22;11784;49.818;8.632;2023-04-03T05:34:50;7.80;81.30
23231;DHT22;11784;49.818;8.632;2023-04-03T05:37:17;7.80;81.00
23231;DHT22;11784;49.818;8.632;2023-04-03T05:39:42;8.00;80.20
23231;DHT22;11784;49.818;8.632;2023-04-03T05:42:10;8.00;79.80
23231;DHT22;11784;49.818;8.632;2023-04-03T05:44:37;8.10;79.70
23231;DHT22;11784;49.818;8.632;2023-04-03T05:47:03;8.30;79.60
23231;DHT22;11784;49.818;8.632;2023-04-03T05:49:29;8.30;78.90
23231;DHT22;11784;49.818;8.632;2023-04-03T05:51:54;8.40;78.90
23231;DHT22;11784;49.818;8.632;2023-04-03T05:54:27;8.50;78.40
23231;DHT22;11784;49.818;8.632;2023-04-03T05:56:53;8.50;77.80
23231;DHT22;11784;49.818;8.632;2023-04-03T05:59:20;8.60;77.50
23231;DHT22;11784;49.818;8.632;2023-04-03T06:01:46;8.70;77.00
23231;DHT22;11784;49.818;8.632;2023-04-03T06:04:13;8.70;76.80
23231;DHT22;11784;49.818;8.632;2023-04-03T06:06:51;8.80;76.60
23231;DHT22;11784;49.818;8.632;2023-04-03T06:09:19;8.80;76.90
23231;DHT22;11784;49.818;8.632;2023-04-03T06:11:44;8.90;77.30
23231;DHT22;11784;49.818;8.632;2023-04-03T06:14:11;8.90;75.70
23231;DHT22;11784;49.818;8.632;2023-04-03T06:16:37;9.00;76.30
23231;DHT22;11784;49.818;8.632;2023-04-03T06:19:03;9.10;75.60
23231;DHT22;11784;49.818;8.632;2023-04-03T06:21:29;9.10;74.60
23231;DHT22;11784;49.818;8.632;2023-04-03T06:23:55;9.10;74.40
23231;DHT22;11784;49.818;8.632;2023-04-03T06:26:21;9.20;73.70
23231;DHT22;11784;49.818;8.632;2023-04-03T06:28:47;9.20;73.60
23231;DHT22;11784;49.818;8.632;2023-04-03T06:31:13;9.30;74.00
23231;DHT22;11784;49.818;8.632;2023-04-03T06:33:38;9.30;73.50
23231;DHT22;11784;49.818;8.632;2023-04-03T06:36:05;9.30;73.00
23231;DHT22;11784;49.818;8.632;2023-04-03T06:38:33;9.40;72.70
23231;DHT22;11784;49.818;8.632;2023-04-03T06:40:59;9.40;72.30
23231;DHT22;11784;49.818;8.632;2023-04-03T06:43:25;9.40;72.10
23231;DHT22;11784;49.818;8.632;2023-04-03T06:45:51;9.40;72.10
23231;DHT22;11784;49.818;8.632;2023-04-03T06:48:16;9.40;71.90
23231;DHT22;11784;49.818;8.632;2023-04-03T06:50:42;9.40;71.50
23231;DHT22;11784;49.818;8.632;2023-04-03T06:53:08;9.40;71.60
23231;DHT22;11784;49.818;8.632;2023-04-03T06:55:34;9.40;70.60
23231;DHT22;11784;49.818;8.632;2023-04-03T06:58:00;9.40;70.80
23231;DHT22;11784;49.818;8.632;2023-04-03T07:00:26;9.40;70.40
23231;DHT22;11784;49.818;8.632;2023-04-03T07:02:51;9.40;71.00
23231;DHT22;11784;49.818;8.632;2023-04-03T07:05:17;9.40;71.50
23231;DHT22;11784;49.818;8.632;2023-04-03T07:07:43;9.40;70.60
23231;DHT22;11784;49.818;8.632;2023-04-03T07:10:09;9.40;70.00
23231;DHT22;11784;49.818;8.632;2023-04-03T07:12:36;9.50;69.60
23231;DHT22;11784;49.818;8.632;2023-04-03T07:15:04;9.50;69.60
23231;DHT22;11784;49.818;8.632;2023-04-03T07:17:30;9.40;69.10
23231;DHT22;11784;49.818;8.632;2023-04-03T07:19:55;9.50;69.40
23231;DHT22;11784;49.818;8.632;2023-04-03T07:22:21;9.50;69.00
23231;DHT22;11784;49.818;8.632;2023-04-03T07:24:46;9.50;68.90
23231;DHT22;11784;49.818;8.632;2023-04-03T07:27:12;9.50;68.90
23231;DHT22;11784;49.818;8.632;2023-04-03T07:29:38;9.50;68.80
23231;DHT22;11784;49.818;8.632;2023-04-03T07:32:04;9.50;69.10
23231;DHT22;11784;49.818;8.632;2023-04-03T07:34:34;9.60;68.60
23231;DHT22;11784;49.818;8.632;2023-04-03T07:36:59;9.60;67.70
23231;DHT22;11784;49.818;8.632;2023-04-03T07:39:25;9.60;67.30
23231;DHT22;11784;49.818;8.632;2023-04-03T07:41:51;9.60;66.40
23231;DHT22;11784;49.818;8.632;2023-04-03T07:44:17;9.60;66.40
23231;DHT22;11784;49.818;8.632;2023-04-03T07:46:43;9.60;65.60
23231;DHT22;11784;49.818;8.632;2023-04-03T07:49:08;9.60;65.20
23231;DHT22;11784;49.818;8.632;2023-04-03T07:51:34;9.70;64.10
23231;DHT22;11784;49.818;8.632;2023-04-03T07:54:00;9.60;64.40
23231;DHT22;11784;49.818;8.632;2023-04-03T07:56:26;9.60;65.10
23231;DHT22;11784;49.818;8.632;2023-04-03T07:58:51;9.60;64.10
23231;DHT22;11784;49.818;8.632;2023-04-03T08:01:17;9.60;63.60
23231;DHT22;11784;49.818;8.632;2023-04-03T08:03:42;9.50;63.50
23231;DHT22;11784;49.818;8.632;2023-04-03T08:06:09;9.50;63.20
23231;DHT22;11784;49.818;8.632;2023-04-03T08:08:35;9.50;64.10
23231;DHT22;11784;49.818;8.632;2023-04-03T08:11:01;9.60;64.60
23231;DHT22;11784;49.818;8.632;2023-04-03T08:13:28;9.60;63.80
23231;DHT22;11784;49.818;8.632;2023-04-03T08:15:54;9.70;63.40
23231;DHT22;11784;49.818;8.632;2023-04-03T08:18:22;9.70;63.20
23231;DHT22;11784;49.818;8.632;2023-04-03T08:20:50;9.80;62.90
23231;DHT22;11784;49.818;8.632;2023-04-03T08:23:17;9.80;62.50
23231;DHT22;11784;49.818;8.632;2023-04-03T08:25:43;9.80;63.40
23231;DHT22;11784;49.818;8.632;2023-04-03T08:28:10;9.90;62.50
23231;DHT22;11784;49.818;8.632;2023-04-03T08:30:39;9.90;60.90
23231;DHT22;11784;49.818;8.632;2023-04-03T08:33:05;10.00;60.20
23231;DHT22;11784;49.818;8.632;2023-04-03T08:35:32;9.90;60.50
23231;DHT22;11784;49.818;8.632;2023-04-03T08:37:57;10.00;61.20
23231;DHT22;11784;49.818;8.632;2023-04-03T08:40:24;10.00;61.90
23231;DHT22;11784;49.818;8.632;2023-04-03T08:45:50;10.00;59.80
23231;DHT22;11784;49.818;8.632;2023-04-03T08:48:23;10.00;59.40
23231;DHT22;11784;49.818;8.632;2023-04-03T08:50:54;10.00;60.70
23231;DHT22;11784;49.818;8.632;2023-04-03T08:53:27;10.00;61.50
23231;DHT22;11784;49.818;8.632;2023-04-03T08:55:54;10.00;61.50
23231;DHT22;11784;49.818;8.632;2023-04-03T08:58:28;10.10;61.00
23231;DHT22;11784;49.818;8.632;2023-04-03T09:01:06;10.10;61.20
23231;DHT22;11784;49.818;8.632;2023-04-03T09:03:37;10.20;60.40
23231;DHT22;11784;49.818;8.632;2023-04-03T09:06:10;10.40;59.70
23231;DHT22;11784;49.818;8.632;2023-04-03T09:09:02;10.50;59.60
23231;DHT22;11784;49.818;8.632;2023-04-03T09:11:47;10.70;59.50
23231;DHT22;11784;49.818;8.632;2023-04-03T09:14:38;10.90;59.80
23231;DHT22;11784;49.818;8.632;2023-04-03T09:17:26;11.10;59.10
23231;DHT22;11784;49.818;8.632;2023-04-03T09:22:42;11.50;56.80
23231;DHT22;11784;49.818;8.632;2023-04-03T09:25:31;11.70;57.60
23231;DHT22;11784;49.818;8.632;2023-04-03T09:28:00;11.90;56.70
23231;DHT22;11784;49.818;8.632;2023-04-03T09:30:27;12.00;57.00
23231;DHT22;11784;49.818;8.632;2023-04-03T09:32:54;12.20;54.90
23231;DHT22;11784;49.818;8.632;2023-04-03T09:35:30;12.30;54.50
23231;DHT22;11784;49.818;8.632;2023-04-03T09:38:01;12.40;54.10
23231;DHT22;11784;49.818;8.632;2023-04-03T09:40:44;12.40;54.00
23231;DHT22;11784;49.818;8.632;2023-04-03T09:45:44;12.50;52.80
23231;DHT22;11784;49.818;8.632;2023-04-03T09:53:42;12.70;52.40
23231;DHT22;11784;49.818;8.632;2023-04-03T09:58:44;12.80;52.20
23231;DHT22;11784;49.818;8.632;2023-04-03T10:04:03;12.70;52.80
23231;DHT22;11784;49.818;8.632;2023-04-03T10:06:36;12.70;54.10
23231;DHT22;11784;49.818;8.632;2023-04-03T10:09:10;12.70;53.70
23231;DHT22;11784;49.818;8.632;2023-04-03T10:12:01;12.70;53.20
23231;DHT22;11784;49.818;8.632;2023-04-03T10:14:28;12.80;51.30
23231;DHT22;11784;49.818;8.632;2023-04-03T10:19:55;12.80;50.40
23231;DHT22;11784;49.818;8.632;2023-04-03T10:28:01;13.00;52.50
23231;DHT22;11784;49.818;8.632;2023-04-03T10:33:53;13.10;50.70
23231;DHT22;11784;49.818;8.632;2023-04-03T10:36:47;13.10;51.30
23231;DHT22;11784;49.818;8.632;2023-04-03T10:47:41;13.10;50.90
23231;DHT22;11784;49.818;8.632;2023-04-03T10:50:24;13.20;49.40
23231;DHT22;11784;49.818;8.632;2023-04-03T10:55:43;13.20;48.50
23231;DHT22;11784;49.818;8.632;2023-04-03T10:58:33;13.20;49.50
23231;DHT22;11784;49.818;8.632;2023-04-03T11:01:06;13.20;49.40
23231;DHT22;11784;49.818;8.632;2023-04-03T11:03:36;13.30;50.20
23231;DHT22;11784;49.818;8.632;2023-04-03T11:06:09;13.40;50.30
23231;DHT22;11784;49.818;8.632;2023-04-03T11:08:42;13.50;48.60
23231;DHT22;11784;49.818;8.632;2023-04-03T11:11:13;13.60;49.00
23231;DHT22;11784;49.818;8.632;2023-04-03T11:13:49;13.60;48.80
23231;DHT22;11784;49.818;8.632;2023-04-03T11:16:21;13.70;49.80
23231;DHT22;11784;49.818;8.632;2023-04-03T11:18:56;13.90;48.40
23231;DHT22;11784;49.818;8.632;2023-04-03T11:21:44;13.90;48.40
23231;DHT22;11784;49.818;8.632;2023-04-03T11:24:25;13.90;48.90
23231;DHT22;11784;49.818;8.632;2023-04-03T11:26:53;13.90;47.20
23231;DHT22;11784;49.818;8.632;2023-04-03T11:29:23;13.80;48.00
23231;DHT22;11784;49.818;8.632;2023-04-03T11:33:05;13.80;47.10
23231;DHT22;11784;49.818;8.632;2023-04-03T11:34:59;13.80;47.70
23231;DHT22;11784;49.818;8.632;2023-04-03T11:37:35;13.80;47.50
23231;DHT22;11784;49.818;8.632;2023-04-03T11:40:08;13.80;48.20
23231;DHT22;11784;49.818;8.632;2023-04-03T11:42:49;13.70;47.80
23231;DHT22;11784;49.818;8.632;2023-04-03T11:50:52;13.70;46.80
23231;DHT22;11784;49.818;8.632;2023-04-03T11:53:34;13.70;47.10
23231;DHT22;11784;49.818;8.632;2023-04-03T11:58:31;13.70;46.70
23231;DHT22;11784;49.818;8.632;2023-04-03T12:01:11;13.70;46.90
23231;DHT22;11784;49.818;8.632;2023-04-03T12:08:47;13.70;47.60
23231;DHT22;11784;49.818;8.632;2023-04-03T12:27:16;14.40;46.30
23231;DHT22;11784;49.818;8.632;2023-04-03T12:33:20;14.80;45.30
23231;DHT22;11784;49.818;8.632;2023-04-03T12:36:11;14.90;43.80
23231;DHT22;11784;49.818;8.632;2023-04-03T12:39:02;15.00;43.20
23231;DHT22;11784;49.818;8.632;2023-04-03T12:41:36;15.00;41.20
23231;DHT22;11784;49.818;8.632;2023-04-03T12:44:24;14.90;41.20
23231;DHT22;11784;49.818;8.632;2023-04-03T12:46:52;14.80;42.30
23231;DHT22;11784;49.818;8.632;2023-04-03T12:49:33;14.70;43.70
23231;DHT22;11784;49.818;8.632;2023-04-03T12:52:04;14.80;43.20
23231;DHT22;11784;49.818;8.632;2023-04-03T12:54:38;14.80;42.50
23231;DHT22;11784;49.818;8.632;2023-04-03T12:57:12;15.00;43.00
23231;DHT22;11784;49.818;8.632;2023-04-03T12:59:41;15.00;41.50
23231;DHT22;11784;49.818;8.632;2023-04-03T13:02:35;15.20;42.50
23231;DHT22;11784;49.818;8.632;2023-04-03T13:05:09;15.30;41.70
23231;DHT22;11784;49.818;8.632;2023-04-03T13:07:40;15.40;41.10
23231;DHT22;11784;49.818;8.632;2023-04-03T13:12:34;15.60;39.80
23231;DHT22;11784;49.818;8.632;2023-04-03T13:15:03;15.60;39.50
23231;DHT22;11784;49.818;8.632;2023-04-03T13:17:39;15.60;40.30
23231;DHT22;11784;49.818;8.632;2023-04-03T13:20:35;15.70;37.80
23231;DHT22;11784;49.818;8.632;2023-04-03T13:23:07;15.70;37.80
23231;DHT22;11784;49.818;8.632;2023-04-03T13:25:41;15.70;38.90
23231;DHT22;11784;49.818;8.632;2023-04-03T13:28:13;15.80;39.00
23231;DHT22;11784;49.818;8.632;2023-04-03T13:30:40;15.90;39.30
23231;DHT22;11784;49.818;8.632;2023-04-03T13:33:20;16.20;36.50
23231;DHT22;11784;49.818;8.632;2023-04-03T13:35:47;16.80;36.20
23231;DHT22;11784;49.818;8.632;2023-04-03T13:40:51;18.80;35.10
23231;DHT22;11784;49.818;8.632;2023-04-03T13:43:17;20.00;34.60
23231;DHT22;11784;49.818;8.632;2023-04-03T13:48:48;22.30;29.10
23231;DHT22;11784;49.818;8.632;2023-04-03T13:53:44;24.00;27.50
23231;DHT22;11784;49.818;8.632;2023-04-03T13:56:37;25.00;26.60
23231;DHT22;11784;49.818;8.632;2023-04-03T14:01:45;26.90;24.80
23231;DHT22;11784;49.818;8.632;2023-04-03T14:04:27;27.70;24.40
23231;DHT22;11784;49.818;8.632;2023-04-03T14:06:53;28.40;22.70
23231;DHT22;11784;49.818;8.632;2023-04-03T14:09:20;29.00;22.00
23231;DHT22;11784;49.818;8.632;2023-04-03T14:11:47;29.60;22.00
23231;DHT22;11784;49.818;8.632;2023-04-03T14:14:16;30.20;21.30
23231;DHT22;11784;49.818;8.632;2023-04-03T14:16:46;30.70;20.80
23231;DHT22;11784;49.818;8.632;2023-04-03T14:19:19;31.30;20.70
23231;DHT22;11784;49.818;8.632;2023-04-03T14:21:46;31.70;20.20
23231;DHT22;11784;49.818;8.632;2023-04-03T14:24:11;32.00;19.90
23231;DHT22;11784;49.818;8.632;2023-04-03T14:26:37;32.40;19.50
23231;DHT22;11784;49.818;8.632;2023-04-03T14:29:03;32.80;19.40
23231;DHT22;11784;49.818;8.632;2023-04-03T14:31:28;33.10;18.30
23231;DHT22;11784;49.818;8.632;2023-04-03T14:33:54;33.30;18.80
23231;DHT22;11784;49.818;8.632;2023-04-03T14:36:22;33.50;18.50
23231;DHT22;11784;49.818;8.632;2023-04-03T14:38:49;33.70;17.90
23231;DHT22;11784;49.818;8.632;2023-04-03T14:41:17;33.20;17.40
23231;DHT22;11784;49.818;8.632;2023-04-03T14:43:44;32.10;17.40
23231;DHT22;11784;49.818;8.632;2023-04-03T14:48:56;30.30;19.20
23231;DHT22;11784;49.818;8.632;2023-04-03T14:51:23;29.90;19.50
23231;DHT22;11784;49.818;8.632;2023-04-03T14:53:48;29.40;19.80
23231;DHT22;11784;49.818;8.632;2023-04-03T14:56:18;29.30;20.50
23231;DHT22;11784;49.818;8.632;2023-04-03T14:58:47;29.60;21.20
23231;DHT22;11784;49.818;8.632;2023-04-03T15:01:16;30.30;21.10
23231;DHT22;11784;49.818;8.632;2023-04-03T15:03:41;30.90;20.20
23231;DHT22;11784;49.818;8.632;2023-04-03T15:06:10;31.50;19.40
23231;DHT22;11784;49.818;8.632;2023-04-03T15:08:36;31.20;18.70
23231;DHT22;11784;49.818;8.632;2023-04-03T15:11:08;30.50;18.80
23231;DHT22;11784;49.818;8.632;2023-04-03T15:13:35;29.50;19.30
23231;DHT22;11784;49.818;8.632;2023-04-03T15:16:01;28.40;19.70
23231;DHT22;11784;49.818;8.632;2023-04-03T15:18:27;27.60;20.00
23231;DHT22;11784;49.818;8.632;2023-04-03T15:20:54;27.00;20.90
23231;DHT22;11784;49.818;8.632;2023-04-03T15:23:20;26.50;20.70
23231;DHT22;11784;49.818;8.632;2023-04-03T15:25:51;25.80;21.30
23231;DHT22;11784;49.818;8.632;2023-04-03T15:28:30;25.00;22.30
23231;DHT22;11784;49.818;8.632;2023-04-03T15:30:57;24.20;23.60
23231;DHT22;11784;49.818;8.632;2023-04-03T15:33:23;24.20;24.80
23231;DHT22;11784;49.818;8.632;2023-04-03T15:35:48;24.80;25.20
23231;DHT22;11784;49.818;8.632;2023-04-03T15:38:14;25.70;24.60
23231;DHT22;11784;49.818;8.632;2023-04-03T15:40:40;26.90;23.40
23231;DHT22;11784;49.818;8.632;2023-04-03T15:43:07;28.00;21.30
23231;DHT22;11784;49.818;8.632;2023-04-03T15:45:33;29.00;20.90
23231;DHT22;11784;49.818;8.632;2023-04-03T15:48:00;29.40;20.20
23231;DHT22;11784;49.818;8.632;2023-04-03T15:50:26;29.10;19.60
23231;DHT22;11784;49.818;8.632;2023-04-03T15:52:52;28.30;20.10
23231;DHT22;11784;49.818;8.632;2023-04-03T15:55:24;27.40;20.50
23231;DHT22;11784;49.818;8.632;2023-04-03T15:57:51;26.80;21.20
23231;DHT22;11784;49.818;8.632;2023-04-03T16:00:17;26.70;22.10
23231;DHT22;11784;49.818;8.632;2023-04-03T16:02:45;27.10;22.10
23231;DHT22;11784;49.818;8.632;2023-04-03T16:05:12;27.60;21.50
23231;DHT22;11784;49.818;8.632;2023-04-03T16:07:39;27.90;20.90
23231;DHT22;11784;49.818;8.632;2023-04-03T16:10:08;27.70;19.80
23231;DHT22;11784;49.818;8.632;2023-04-03T16:12:34;27.10;20.60
23231;DHT22;11784;49.818;8.632;2023-04-03T16:15:00;26.40;21.70
23231;DHT22;11784;49.818;8.632;2023-04-03T16:17:26;25.70;21.70
23231;DHT22;11784;49.818;8.632;2023-04-03T16:19:54;25.20;22.40
23231;DHT22;11784;49.818;8.632;2023-04-03T16:22:20;25.20;23.10
23231;DHT22;11784;49.818;8.632;2023-04-03T16:24:45;25.10;22.40
23231;DHT22;11784;49.818;8.632;2023-04-03T16:27:11;24.80;22.80
23231;DHT22;11784;49.818;8.632;2023-04-03T16:29:36;24.70;23.50
23231;DHT22;11784;49.818;8.632;2023-04-03T16:32:03;24.70;23.10
23231;DHT22;11784;49.818;8.632;2023-04-03T16:34:29;24.60;22.70
23231;DHT22;11784;49.818;8.632;2023-04-03T16:36:57;24.80;23.20
23231;DHT22;11784;49.818;8.632;2023-04-03T16:39:23;25.30;23.50
23231;DHT22;11784;49.818;8.632;2023-04-03T16:41:48;25.90;23.10
23231;DHT22;11784;49.818;8.632;2023-04-03T16:44:16;26.60;22.40
23231;DHT22;11784;49.818;8.632;2023-04-03T16:46:41;27.20;22.10
23231;DHT22;11784;49.818;8.632;2023-04-03T16:49:07;27.70;21.70
23231;DHT22;11784;49.818;8.632;2023-04-03T16:51:33;27.60;21.00
23231;DHT22;11784;49.818;8.632;2023-04-03T16:53:58;27.00;20.80
23231;DHT22;11784;49.818;8.632;2023-04-03T16:56:24;26.10;21.30
23231;DHT22;11784;49.818;8.632;2023-04-03T16:58:52;25.10;21.90
23231;DHT22;11784;49.818;8.632;2023-04-03T17:01:20;24.00;22.70
23231;DHT22;11784;49.818;8.632;2023-04-03T17:03:46;23.00;23.40
23231;DHT22;11784;49.818;8.632;2023-04-03T17:06:15;22.00;24.60
23231;DHT22;11784;49.818;8.632;2023-04-03T17:08:46;21.10;25.70
23231;DHT22;11784;49.818;8.632;2023-04-03T17:11:12;20.20;26.50
23231;DHT22;11784;49.818;8.632;2023-04-03T17:13:37;19.40;27.30
23231;DHT22;11784;49.818;8.632;2023-04-03T17:16:06;18.90;28.00
23231;DHT22;11784;49.818;8.632;2023-04-03T17:18:36;18.20;29.00
23231;DHT22;11784;49.818;8.632;2023-04-03T17:21:02;17.60;29.70
23231;DHT22;11784;49.818;8.632;2023-04-03T17:23:28;17.10;29.90
23231;DHT22;11784;49.818;8.632;2023-04-03T17:25:54;16.70;31.20
23231;DHT22;11784;49.818;8.632;2023-04-03T17:28:21;16.30;31.90
23231;DHT22;11784;49.818;8.632;2023-04-03T17:30:53;15.90;32.40